createdAt,value
2023-01-27T00:00:46.113Z,0
2023-01-27T00:01:45.279Z,0
2023-01-27T00:02:47.881Z,0
2023-01-27T00:03:46.202Z,0
2023-01-27T00:04:46.278Z,0
2023-01-27T00:05:46.279Z,0
2023-01-27T00:06:45.934Z,0
2023-01-27T00:07:51.079Z,0
2023-01-27T00:08:45.486Z,0
2023-01-27T00:09:45.893Z,0
2023-01-27T00:10:45.882Z,0
2023-01-27T00:11:45.834Z,0
2023-01-27T00:12:45.819Z,0
2023-01-27T00:13:46.084Z,0
2023-01-27T00:14:46.026Z,0
2023-01-27T00:15:46.252Z,0
2023-01-27T00:16:45.964Z,0
2023-01-27T00:17:45.923Z,0
2023-01-27T00:18:46.215Z,0
2023-01-27T00:19:46.152Z,0
2023-01-27T00:20:45.700Z,0
2023-01-27T00:21:46.176Z,0
2023-01-27T00:22:46.073Z,0
2023-01-27T00:23:45.845Z,0
2023-01-27T00:24:46.075Z,0
2023-01-27T00:25:45.494Z,0
2023-01-27T00:26:45.797Z,0
2023-01-27T00:27:46.085Z,0
2023-01-27T00:28:45.964Z,0
2023-01-27T00:29:45.731Z,0
2023-01-27T00:30:45.585Z,0
2023-01-27T00:31:46.445Z,0
2023-01-27T00:32:45.370Z,0
2023-01-27T00:33:45.337Z,0
2023-01-27T00:34:45.055Z,0
2023-01-27T00:35:45.303Z,0
2023-01-27T00:36:45.711Z,0
2023-01-27T00:37:45.584Z,0
2023-01-27T00:38:45.471Z,0
2023-01-27T00:39:45.716Z,0
2023-01-27T00:40:45.697Z,0
2023-01-27T00:41:45.437Z,0
2023-01-27T00:42:45.135Z,0
2023-01-27T00:43:44.883Z,0
2023-01-27T00:44:45.386Z,0
2023-01-27T00:45:45.074Z,0
2023-01-27T00:46:45.849Z,0
2023-01-27T00:47:45.341Z,0
2023-01-27T00:48:45.019Z,0
2023-01-27T00:49:45.489Z,0
2023-01-27T00:50:45.478Z,0
2023-01-27T00:51:45.255Z,0
2023-01-27T00:52:45.243Z,0
2023-01-27T00:53:45.217Z,0
2023-01-27T00:54:45.390Z,0
2023-01-27T00:55:44.627Z,0
2023-01-27T00:56:45.360Z,0
2023-01-27T00:57:45.399Z,0
2023-01-27T00:58:45.081Z,0
2023-01-27T00:59:45.034Z,0
2023-01-27T01:00:45.069Z,0
2023-01-27T01:01:45.585Z,0
2023-01-27T01:02:45.303Z,0
2023-01-27T01:03:45.216Z,0
2023-01-27T01:04:44.960Z,0
2023-01-27T01:05:44.657Z,0
2023-01-27T01:06:45.176Z,0
2023-01-27T01:07:44.855Z,0
2023-01-27T01:08:44.912Z,0
2023-01-27T01:09:45.134Z,0
2023-01-27T01:10:44.777Z,0
2023-01-27T01:11:44.235Z,0
2023-01-27T01:12:45.000Z,0
2023-01-27T01:13:44.757Z,0
2023-01-27T01:14:44.721Z,0
2023-01-27T01:15:44.289Z,0
2023-01-27T01:16:44.404Z,0
2023-01-27T01:17:44.642Z,0
2023-01-27T01:18:44.642Z,0
2023-01-27T01:19:44.603Z,0
2023-01-27T01:20:44.599Z,0
2023-01-27T01:21:46.811Z,0
2023-01-27T01:22:44.324Z,0
2023-01-27T01:23:44.000Z,0
2023-01-27T01:24:44.273Z,0
2023-01-27T01:25:44.896Z,0
2023-01-27T01:26:44.169Z,0
2023-01-27T01:27:44.679Z,0
2023-01-27T01:28:44.663Z,0
2023-01-27T01:29:44.615Z,0
2023-01-27T01:30:44.349Z,0
2023-01-27T01:31:44.629Z,0
2023-01-27T01:32:44.286Z,0
2023-01-27T01:34:16.104Z,0
2023-01-27T01:34:44.509Z,0
2023-01-27T01:35:44.581Z,0
2023-01-27T01:36:44.362Z,0
2023-01-27T01:37:43.953Z,0
2023-01-27T01:38:43.663Z,0
2023-01-27T01:39:44.141Z,0
2023-01-27T01:40:44.242Z,0
2023-01-27T01:41:44.475Z,0
2023-01-27T01:42:43.843Z,0
2023-01-27T01:43:44.284Z,0
2023-01-27T01:44:43.822Z,0
2023-01-27T01:45:44.118Z,0
2023-01-27T01:46:43.835Z,0
2023-01-27T01:47:43.719Z,0
2023-01-27T01:48:43.959Z,0
2023-01-27T01:49:44.206Z,0
2023-01-27T01:50:44.225Z,0
2023-01-27T01:51:44.216Z,0
2023-01-27T01:52:44.128Z,0
2023-01-27T01:53:43.612Z,0
2023-01-27T01:54:44.106Z,0
2023-01-27T01:55:44.083Z,0
2023-01-27T01:56:44.103Z,0
2023-01-27T01:57:44.130Z,0
2023-01-27T01:59:43.438Z,0
2023-01-27T02:00:43.694Z,0
2023-01-27T02:01:43.662Z,0
2023-01-27T02:02:43.927Z,0
2023-01-27T02:03:44.156Z,0
2023-01-27T02:04:44.336Z,0
2023-01-27T02:05:44.466Z,0
2023-01-27T02:06:44.026Z,0
2023-01-27T02:07:43.761Z,0
2023-01-27T02:08:43.734Z,0
2023-01-27T02:09:44.121Z,0
2023-01-27T02:10:43.937Z,0
2023-01-27T02:11:43.963Z,0
2023-01-27T02:12:43.955Z,0
2023-01-27T02:13:44.181Z,0
2023-01-27T02:14:43.710Z,0
2023-01-27T02:15:43.593Z,0
2023-01-27T02:16:44.517Z,0
2023-01-27T02:17:43.867Z,0
2023-01-27T02:18:43.783Z,0
2023-01-27T02:19:43.494Z,0
2023-01-27T02:20:43.850Z,0
2023-01-27T02:21:43.974Z,0
2023-01-27T02:22:43.943Z,0
2023-01-27T02:23:43.402Z,0
2023-01-27T02:24:43.656Z,0
2023-01-27T02:25:43.871Z,0
2023-01-27T02:26:43.635Z,0
2023-01-27T02:27:43.342Z,0
2023-01-27T02:28:43.596Z,0
2023-01-27T02:29:43.874Z,0
2023-01-27T02:30:44.172Z,0
2023-01-27T02:31:43.971Z,0
2023-01-27T02:32:45.060Z,0
2023-01-27T02:33:43.461Z,0
2023-01-27T02:34:42.888Z,0
2023-01-27T02:35:43.662Z,0
2023-01-27T02:36:43.375Z,0
2023-01-27T02:37:43.374Z,0
2023-01-27T02:38:43.372Z,0
2023-01-27T02:39:43.062Z,0
2023-01-27T02:40:43.553Z,0
2023-01-27T02:41:43.305Z,0
2023-01-27T02:42:43.497Z,0
2023-01-27T02:43:43.003Z,0
2023-01-27T02:44:43.512Z,0
2023-01-27T02:45:43.486Z,0
2023-01-27T02:46:43.187Z,0
2023-01-27T02:47:42.897Z,0
2023-01-27T02:48:43.396Z,0
2023-01-27T02:49:42.903Z,0
2023-01-27T02:50:43.102Z,0
2023-01-27T02:51:43.063Z,0
2023-01-27T02:52:43.276Z,0
2023-01-27T02:53:43.164Z,0
2023-01-27T02:54:42.458Z,0
2023-01-27T02:55:42.939Z,0
2023-01-27T02:56:42.711Z,0
2023-01-27T02:57:43.141Z,0
2023-01-27T02:58:42.659Z,0
2023-01-27T02:59:42.853Z,0
2023-01-27T03:00:42.932Z,0
2023-01-27T03:01:43.464Z,0
2023-01-27T03:02:42.913Z,0
2023-01-27T03:03:43.120Z,0
2023-01-27T03:04:43.069Z,0
2023-01-27T03:05:42.564Z,0
2023-01-27T03:06:42.454Z,0
2023-01-27T03:07:42.944Z,0
2023-01-27T03:08:42.418Z,0
2023-01-27T03:09:42.632Z,0
2023-01-27T03:10:42.111Z,0
2023-01-27T03:11:42.635Z,0
2023-01-27T03:12:42.094Z,0
2023-01-27T03:13:42.866Z,0
2023-01-27T03:14:42.861Z,0
2023-01-27T03:15:42.303Z,0
2023-01-27T03:16:42.807Z,0
2023-01-27T03:17:42.562Z,0
2023-01-27T03:18:42.737Z,0
2023-01-27T03:19:42.685Z,0
2023-01-27T03:20:42.445Z,0
2023-01-27T03:21:42.416Z,0
2023-01-27T03:22:42.375Z,0
2023-01-27T03:23:42.380Z,0
2023-01-27T03:24:44.425Z,0
2023-01-27T03:25:42.590Z,0
2023-01-27T03:26:42.360Z,0
2023-01-27T03:27:42.292Z,0
2023-01-27T03:28:41.721Z,0
2023-01-27T03:29:42.693Z,0
2023-01-27T03:30:43.675Z,0
2023-01-27T03:31:43.490Z,0
2023-01-27T03:32:43.579Z,0
2023-01-27T03:50:08.093Z,0
2023-01-27T03:51:07.986Z,0
2023-01-27T03:52:07.187Z,0
2023-01-27T03:53:08.424Z,0
2023-01-27T03:54:07.630Z,0
2023-01-27T03:55:07.352Z,0
2023-01-27T03:56:07.574Z,0
2023-01-27T03:57:07.569Z,0
2023-01-27T03:58:07.253Z,0
2023-01-27T03:59:07.775Z,0
2023-01-27T04:00:07.487Z,0
2023-01-27T04:01:07.733Z,0
2023-01-27T04:02:07.438Z,0
2023-01-27T04:03:07.527Z,0
2023-01-27T04:04:07.209Z,0
2023-01-27T04:05:06.942Z,0
2023-01-27T04:06:07.735Z,0
2023-01-27T04:07:07.086Z,0
2023-01-27T04:08:07.080Z,0
2023-01-27T04:09:07.575Z,0
2023-01-27T04:10:07.225Z,0
2023-01-27T04:11:07.359Z,0
2023-01-27T04:12:07.863Z,0
2023-01-27T04:13:07.209Z,0
2023-01-27T04:14:07.162Z,0
2023-01-27T04:15:06.949Z,0
2023-01-27T04:16:07.216Z,0
2023-01-27T04:17:07.118Z,0
2023-01-27T04:18:07.127Z,0
2023-01-27T04:19:07.073Z,0
2023-01-27T04:20:07.099Z,0
2023-01-27T04:21:07.188Z,0
2023-01-27T04:22:07.826Z,0
2023-01-27T04:23:07.405Z,0
2023-01-27T04:24:07.235Z,0
2023-01-27T04:25:07.112Z,0
2023-01-27T04:26:07.120Z,0
2023-01-27T04:27:07.430Z,0
2023-01-27T04:28:07.350Z,0
2023-01-27T04:29:07.568Z,0
2023-01-27T04:30:07.103Z,0
2023-01-27T04:31:07.431Z,0
2023-01-27T04:32:07.762Z,0
2023-01-27T04:33:07.792Z,0
2023-01-27T04:34:07.208Z,0
2023-01-27T04:35:07.224Z,0
2023-01-27T04:36:07.405Z,0
2023-01-27T04:37:06.644Z,0
2023-01-27T04:38:07.475Z,0
2023-01-27T04:39:07.326Z,0
2023-01-27T04:40:06.845Z,0
2023-01-27T04:41:07.151Z,0
2023-01-27T04:42:06.809Z,0
2023-01-27T04:43:06.999Z,0
2023-01-27T04:44:06.969Z,0
2023-01-27T04:45:07.067Z,0
2023-01-27T04:46:07.504Z,0
2023-01-27T04:47:07.231Z,0
2023-01-27T04:48:07.295Z,0
2023-01-27T04:49:06.606Z,0
2023-01-27T04:50:06.582Z,0
2023-01-27T04:51:07.047Z,0
2023-01-27T04:52:06.828Z,0
2023-01-27T04:53:06.715Z,0
2023-01-27T04:54:07.282Z,0
2023-01-27T04:55:06.729Z,0
2023-01-27T04:56:06.772Z,0
2023-01-27T04:57:06.449Z,0
2023-01-27T04:58:06.969Z,0
2023-01-27T04:59:06.362Z,0
2023-01-27T05:00:06.360Z,0
2023-01-27T05:01:06.876Z,0
2023-01-27T05:02:07.180Z,0
2023-01-27T05:03:07.135Z,0
2023-01-27T05:04:06.324Z,0
2023-01-27T05:05:06.141Z,0
2023-01-27T05:06:06.500Z,0
2023-01-27T05:07:06.785Z,0
2023-01-27T05:08:06.433Z,0
2023-01-27T05:09:06.407Z,0
2023-01-27T05:10:06.761Z,0
2023-01-27T05:11:06.114Z,0
2023-01-27T05:12:06.102Z,0
2023-01-27T05:13:06.594Z,0
2023-01-27T05:14:05.540Z,0
2023-01-27T05:15:06.276Z,0
2023-01-27T05:16:06.282Z,0
2023-01-27T05:17:07.066Z,0
2023-01-27T05:18:06.543Z,0
2023-01-27T05:19:06.427Z,0
2023-01-27T05:20:06.439Z,0
2023-01-27T05:21:06.470Z,0
2023-01-27T05:22:06.379Z,0
2023-01-27T05:23:06.248Z,0
2023-01-27T05:24:06.158Z,0
2023-01-27T05:25:07.202Z,0
2023-01-27T05:26:06.971Z,0
2023-01-27T05:27:06.304Z,0
2023-01-27T05:28:05.757Z,0
2023-01-27T05:29:06.372Z,0
2023-01-27T05:30:06.318Z,0
2023-01-27T05:31:07.033Z,0
2023-01-27T05:32:06.467Z,0
2023-01-27T05:33:05.415Z,0
2023-01-27T05:34:06.186Z,0
2023-01-27T05:35:06.590Z,0
2023-01-27T05:36:06.137Z,0
2023-01-27T05:37:06.366Z,0
2023-01-27T05:38:06.125Z,0
2023-01-27T05:39:08.579Z,0
2023-01-27T05:40:06.554Z,0
2023-01-27T05:41:06.130Z,0
2023-01-27T05:42:06.420Z,0
2023-01-27T05:43:06.008Z,0
2023-01-27T05:44:05.852Z,0
2023-01-27T05:45:05.922Z,0
2023-01-27T05:46:05.511Z,0
2023-01-27T05:47:06.203Z,0
2023-01-27T05:48:05.905Z,0
2023-01-27T05:49:05.627Z,0
2023-01-27T05:50:06.254Z,0
2023-01-27T05:51:06.101Z,0
2023-01-27T05:52:05.787Z,0
2023-01-27T05:53:05.677Z,0
2023-01-27T05:54:05.985Z,0
2023-01-27T05:55:05.802Z,0
2023-01-27T05:56:05.776Z,0
2023-01-27T05:57:05.570Z,0
2023-01-27T05:58:06.031Z,0
2023-01-27T05:59:05.566Z,0
2023-01-27T06:00:05.526Z,0
2023-01-27T06:01:05.601Z,0
2023-01-27T06:02:05.611Z,0
2023-01-27T06:03:05.619Z,0
2023-01-27T06:04:05.470Z,0
2023-01-27T06:05:05.472Z,0
2023-01-27T06:06:05.193Z,0
2023-01-27T06:07:05.456Z,0
2023-01-27T06:08:07.328Z,0
2023-01-27T06:09:05.415Z,0
2023-01-27T06:10:05.859Z,0
2023-01-27T06:11:05.622Z,0
2023-01-27T06:12:05.091Z,0
2023-01-27T06:13:04.803Z,0
2023-01-27T06:14:05.692Z,0
2023-01-27T06:15:05.039Z,0
2023-01-27T06:16:05.119Z,0
2023-01-27T06:17:05.493Z,0
2023-01-27T06:18:05.099Z,0
2023-01-27T06:19:05.488Z,0
2023-01-27T06:20:05.401Z,0
2023-01-27T06:21:05.155Z,0
2023-01-27T06:22:04.863Z,0
2023-01-27T06:23:05.101Z,0
2023-01-27T06:24:05.697Z,0
2023-01-27T06:25:05.111Z,0
2023-01-27T06:26:05.054Z,0
2023-01-27T06:27:04.848Z,0
2023-01-27T06:28:05.248Z,0
2023-01-27T06:29:05.307Z,0
2023-01-27T06:30:05.456Z,0
2023-01-27T06:31:05.289Z,0
2023-01-27T06:32:05.077Z,0
2023-01-27T06:33:04.875Z,0
2023-01-27T06:34:04.881Z,0
2023-01-27T06:35:04.935Z,0
2023-01-27T06:36:05.055Z,0
2023-01-27T06:37:04.806Z,0
2023-01-27T06:38:05.023Z,0
2023-01-27T06:39:04.758Z,0
2023-01-27T06:40:03.977Z,0
2023-01-27T06:41:04.927Z,0
2023-01-27T06:42:04.938Z,0
2023-01-27T06:43:04.709Z,0
2023-01-27T06:44:04.241Z,0
2023-01-27T06:45:05.155Z,0
2023-01-27T06:46:08.403Z,0
2023-01-27T06:47:04.383Z,0
2023-01-27T06:48:04.635Z,0
2023-01-27T06:49:04.519Z,0
2023-01-27T06:50:04.528Z,0
2023-01-27T06:51:04.552Z,0
2023-01-27T06:52:04.640Z,0
2023-01-27T06:53:04.444Z,0
2023-01-27T06:54:04.689Z,0
2023-01-27T06:55:04.597Z,0
2023-01-27T06:56:04.396Z,0
2023-01-27T06:57:04.390Z,0
2023-01-27T06:58:04.660Z,0
2023-01-27T06:59:04.321Z,0
2023-01-27T07:00:04.354Z,0
2023-01-27T07:01:04.603Z,0
2023-01-27T07:02:04.627Z,0
2023-01-27T07:03:04.764Z,0
2023-01-27T07:04:04.054Z,5
2023-01-27T07:05:04.306Z,5
2023-01-27T07:06:04.192Z,5
2023-01-27T07:07:03.908Z,5
2023-01-27T07:08:04.607Z,5
2023-01-27T07:09:04.735Z,5
2023-01-27T07:10:04.071Z,5
2023-01-27T07:11:04.107Z,5
2023-01-27T07:12:04.038Z,5
2023-01-27T07:13:03.825Z,5
2023-01-27T07:14:04.276Z,5
2023-01-27T07:15:03.964Z,10
2023-01-27T07:16:03.842Z,10
2023-01-27T07:17:03.976Z,10
2023-01-27T07:18:04.344Z,10
2023-01-27T07:19:03.945Z,10
2023-01-27T07:20:03.876Z,10
2023-01-27T07:21:04.056Z,10
2023-01-27T07:22:03.574Z,10
2023-01-27T07:23:03.543Z,15
2023-01-27T07:24:03.962Z,15
2023-01-27T07:25:04.001Z,15
2023-01-27T07:26:24.477Z,15
2023-01-27T07:27:03.804Z,15
2023-01-27T07:28:03.769Z,15
2023-01-27T07:29:03.947Z,15
2023-01-27T07:30:03.474Z,15
2023-01-27T07:31:03.882Z,15
2023-01-27T07:32:04.767Z,15
2023-01-27T07:33:04.671Z,15
2023-01-27T07:34:04.887Z,15
2023-01-27T07:35:04.540Z,15
2023-01-27T07:36:04.458Z,20
2023-01-27T07:37:04.436Z,20
2023-01-27T07:38:04.452Z,20
2023-01-27T07:39:04.638Z,20
2023-01-27T07:40:04.416Z,20
2023-01-27T07:41:04.312Z,20
2023-01-27T07:42:03.993Z,20
2023-01-27T07:43:04.319Z,20
2023-01-27T07:44:04.245Z,20
2023-01-27T07:45:04.489Z,20
2023-01-27T07:46:04.483Z,20
2023-01-27T07:47:03.954Z,20
2023-01-27T07:48:04.190Z,20
2023-01-27T07:49:03.904Z,20
2023-01-27T07:50:04.552Z,25
2023-01-27T07:51:04.162Z,25
2023-01-27T07:52:04.320Z,25
2023-01-27T07:53:04.381Z,25
2023-01-27T07:54:07.036Z,25
2023-01-27T07:55:03.797Z,25
2023-01-27T07:56:03.773Z,30
2023-01-27T07:57:03.717Z,30
2023-01-27T07:58:04.842Z,30
2023-01-27T07:59:04.562Z,30
2023-01-27T08:00:04.854Z,30
2023-01-27T08:01:05.406Z,35
2023-01-27T08:02:04.735Z,35
2023-01-27T08:03:05.458Z,35
2023-01-27T08:04:04.473Z,35
2023-01-27T08:05:04.693Z,35
2023-01-27T08:06:05.104Z,40
2023-01-27T08:07:04.737Z,40
2023-01-27T08:08:07.893Z,40
2023-01-27T08:09:04.849Z,40
2023-01-27T08:10:04.319Z,45
2023-01-27T08:11:04.809Z,45
2023-01-27T08:12:04.031Z,45
2023-01-27T08:13:04.606Z,45
2023-01-27T08:14:04.478Z,50
2023-01-27T08:15:04.735Z,50
2023-01-27T08:16:04.453Z,50
2023-01-27T08:17:04.185Z,50
2023-01-27T08:18:04.435Z,50
2023-01-27T08:19:04.122Z,50
2023-01-27T08:20:04.335Z,55
2023-01-27T08:21:04.329Z,55
2023-01-27T08:22:04.687Z,60
2023-01-27T08:23:04.304Z,60
2023-01-27T08:24:04.532Z,60
2023-01-27T08:25:04.733Z,60
2023-01-27T08:26:04.595Z,65
2023-01-27T08:27:05.275Z,65
2023-01-27T08:28:03.983Z,65
2023-01-27T08:29:04.190Z,70
2023-01-27T08:30:04.172Z,70
2023-01-27T08:31:03.773Z,70
2023-01-27T08:32:04.551Z,65
2023-01-27T08:33:04.067Z,65
2023-01-27T08:34:03.799Z,70
2023-01-27T08:35:04.025Z,70
2023-01-27T08:36:04.032Z,70
2023-01-27T08:37:03.984Z,65
2023-01-27T08:38:04.333Z,65
2023-01-27T08:39:04.003Z,70
2023-01-27T08:40:03.693Z,65
2023-01-27T08:41:03.919Z,65
2023-01-27T08:42:03.970Z,65
2023-01-27T08:43:07.303Z,70
2023-01-27T08:44:03.831Z,70
2023-01-27T08:45:03.805Z,65
2023-01-27T08:46:04.273Z,70
2023-01-27T08:47:03.769Z,70
2023-01-27T08:48:03.503Z,65
2023-01-27T08:49:03.987Z,65
2023-01-27T08:50:03.447Z,60
2023-01-27T08:51:03.839Z,60
2023-01-27T08:52:03.970Z,60
2023-01-27T08:53:03.406Z,60
2023-01-27T08:54:03.985Z,65
2023-01-27T08:55:03.856Z,65
2023-01-27T08:56:03.472Z,65
2023-01-27T08:57:03.287Z,60
2023-01-27T08:58:03.014Z,55
2023-01-27T08:59:03.751Z,55
2023-01-27T09:00:03.752Z,50
2023-01-27T09:01:03.382Z,50
2023-01-27T09:02:03.192Z,55
2023-01-27T09:03:03.204Z,55
2023-01-27T09:04:03.396Z,70
2023-01-27T09:05:03.606Z,90
2023-01-27T09:06:03.369Z,90
2023-01-27T09:07:03.348Z,95
2023-01-27T09:08:03.101Z,90
2023-01-27T09:09:03.333Z,80
2023-01-27T09:10:23.229Z,95
2023-01-27T09:11:03.233Z,95
2023-01-27T09:12:03.206Z,75
2023-01-27T09:13:02.463Z,80
2023-01-27T09:14:03.434Z,85
2023-01-27T09:15:02.677Z,85
2023-01-27T09:16:03.463Z,95
2023-01-27T09:17:03.119Z,95
2023-01-27T09:18:05.353Z,100
2023-01-27T09:19:03.335Z,105
2023-01-27T09:20:03.048Z,105
2023-01-27T09:21:03.141Z,100
2023-01-27T09:22:03.258Z,110
2023-01-27T09:23:02.973Z,110
2023-01-27T09:24:03.169Z,100
2023-01-27T09:25:03.258Z,100
2023-01-27T09:26:03.353Z,85
2023-01-27T09:27:05.703Z,80
2023-01-27T09:28:02.367Z,80
2023-01-27T09:29:02.860Z,80
2023-01-27T09:30:02.867Z,65
2023-01-27T09:31:02.943Z,45
2023-01-27T09:32:03.388Z,45
2023-01-27T09:33:02.787Z,45
2023-01-27T09:34:02.513Z,50
2023-01-27T09:35:02.726Z,60
2023-01-27T09:36:02.455Z,70
2023-01-27T09:37:02.728Z,75
2023-01-27T09:38:02.459Z,85
2023-01-27T09:39:02.908Z,80
2023-01-27T09:40:02.369Z,75
2023-01-27T09:41:02.853Z,75
2023-01-27T09:42:03.021Z,70
2023-01-27T09:43:02.302Z,65
2023-01-27T09:44:02.007Z,65
2023-01-27T09:45:02.518Z,60
2023-01-27T09:46:02.845Z,60
2023-01-27T09:47:04.602Z,65
2023-01-27T09:48:02.205Z,70
2023-01-27T09:49:02.674Z,75
2023-01-27T09:50:02.685Z,80
2023-01-27T09:51:04.021Z,90
2023-01-27T09:52:02.613Z,95
2023-01-27T09:53:02.099Z,90
2023-01-27T09:54:02.326Z,90
2023-01-27T09:55:02.303Z,100
2023-01-27T09:56:02.024Z,100
2023-01-27T09:57:02.259Z,105
2023-01-27T09:58:02.631Z,115
2023-01-27T09:59:01.713Z,115
2023-01-27T10:00:02.453Z,120
2023-01-27T10:01:02.166Z,110
2023-01-27T10:02:01.961Z,100
2023-01-27T10:03:02.379Z,100
2023-01-27T10:04:02.093Z,100
2023-01-27T10:05:02.426Z,110
2023-01-27T10:06:02.342Z,105
2023-01-27T10:07:02.110Z,110
2023-01-27T10:08:02.287Z,105
2023-01-27T10:09:01.756Z,100
2023-01-27T10:10:01.989Z,100
2023-01-27T10:11:01.937Z,100
2023-01-27T10:12:01.918Z,105
2023-01-27T10:13:01.897Z,110
2023-01-27T10:14:02.455Z,105
2023-01-27T10:15:01.653Z,110
2023-01-27T10:16:02.100Z,110
2023-01-27T10:17:01.840Z,110
2023-01-27T10:18:02.100Z,105
2023-01-27T10:19:01.537Z,105
2023-01-27T10:20:01.841Z,110
2023-01-27T10:21:01.741Z,105
2023-01-27T10:22:04.539Z,100
2023-01-27T10:23:01.703Z,80
2023-01-27T10:24:02.119Z,75
2023-01-27T10:25:01.387Z,80
2023-01-27T10:26:01.886Z,85
2023-01-27T10:27:01.869Z,90
2023-01-27T10:28:01.828Z,95
2023-01-27T10:29:01.807Z,105
2023-01-27T10:30:01.958Z,115
2023-01-27T10:31:01.755Z,125
2023-01-27T10:32:01.947Z,125
2023-01-27T10:33:01.475Z,120
2023-01-27T10:34:01.469Z,125
2023-01-27T10:35:01.424Z,135
2023-01-27T10:36:01.707Z,155
2023-01-27T10:37:01.410Z,190
2023-01-27T10:38:01.117Z,210
2023-01-27T10:39:01.364Z,180
2023-01-27T10:40:01.088Z,170
2023-01-27T10:41:01.585Z,165
2023-01-27T10:42:01.591Z,185
2023-01-27T10:43:01.290Z,210
2023-01-27T10:44:00.982Z,225
2023-01-27T10:45:00.982Z,225
2023-01-27T10:46:02.031Z,230
2023-01-27T10:47:01.618Z,195
2023-01-27T10:48:00.893Z,165
2023-01-27T10:49:01.144Z,170
2023-01-27T10:50:01.188Z,175
2023-01-27T10:51:01.087Z,170
2023-01-27T10:52:00.821Z,170
2023-01-27T10:53:01.060Z,165
2023-01-27T10:54:01.048Z,160
2023-01-27T10:55:01.001Z,155
2023-01-27T10:56:00.968Z,170
2023-01-27T10:57:01.241Z,175
2023-01-27T10:58:00.982Z,160
2023-01-27T10:59:02.864Z,155
2023-01-27T11:01:29.757Z,180
2023-01-27T11:01:41.249Z,185
2023-01-27T11:02:39.665Z,175
2023-01-27T11:03:39.941Z,180
2023-01-27T11:04:40.582Z,155
2023-01-27T11:05:39.581Z,105
2023-01-27T11:06:40.090Z,100
2023-01-27T11:07:39.279Z,105
2023-01-27T11:08:39.787Z,105
2023-01-27T11:09:39.233Z,120
2023-01-27T11:10:39.473Z,130
2023-01-27T11:11:39.995Z,155
2023-01-27T11:12:39.703Z,155
2023-01-27T11:13:39.703Z,155
2023-01-27T11:14:41.383Z,140
2023-01-27T11:15:39.114Z,145
2023-01-27T11:16:39.532Z,150
2023-01-27T11:17:39.942Z,155
2023-01-27T11:18:39.413Z,165
2023-01-27T11:19:39.317Z,160
2023-01-27T11:20:39.534Z,160
2023-01-27T11:21:39.544Z,165
2023-01-27T11:22:39.505Z,160
2023-01-27T11:23:38.968Z,155
2023-01-27T11:24:39.513Z,155
2023-01-27T11:25:39.199Z,120
2023-01-27T11:26:39.682Z,110
2023-01-27T11:27:39.123Z,110
2023-01-27T11:28:39.360Z,110
2023-01-27T11:29:39.618Z,110
2023-01-27T11:30:39.922Z,110
2023-01-27T11:31:42.571Z,115
2023-01-27T11:32:39.535Z,135
2023-01-27T11:33:39.602Z,170
2023-01-27T11:34:39.500Z,195
2023-01-27T11:35:39.216Z,175
2023-01-27T11:36:39.443Z,195
2023-01-27T11:37:39.185Z,210
2023-01-27T11:38:38.911Z,205
2023-01-27T11:39:38.885Z,210
2023-01-27T11:40:39.394Z,240
2023-01-27T11:41:39.348Z,250
2023-01-27T11:42:38.386Z,270
2023-01-27T11:43:39.057Z,290
2023-01-27T11:44:39.030Z,280
2023-01-27T11:45:39.565Z,265
2023-01-27T11:46:38.982Z,270
2023-01-27T11:47:39.293Z,270
2023-01-27T11:48:38.682Z,250
2023-01-27T11:49:39.259Z,245
2023-01-27T11:50:38.898Z,225
2023-01-27T11:51:38.884Z,220
2023-01-27T11:52:39.148Z,200
2023-01-27T11:53:38.574Z,190
2023-01-27T11:54:38.543Z,165
2023-01-27T11:55:38.795Z,155
2023-01-27T11:56:39.026Z,160
2023-01-27T11:57:39.017Z,170
2023-01-27T11:58:38.730Z,165
2023-01-27T11:59:40.066Z,175
2023-01-27T12:00:41.453Z,180
2023-01-27T12:01:39.389Z,170
2023-01-27T12:02:39.946Z,175
2023-01-27T12:03:39.614Z,175
2023-01-27T12:04:40.050Z,205
2023-01-27T12:05:39.856Z,200
2023-01-27T12:06:39.815Z,170
2023-01-27T12:07:39.485Z,175
2023-01-27T12:08:38.944Z,205
2023-01-27T12:09:39.706Z,230
2023-01-27T12:10:39.706Z,230
2023-01-27T12:11:39.406Z,235
2023-01-27T12:12:39.133Z,245
2023-01-27T12:13:39.078Z,255
2023-01-27T12:14:39.342Z,255
2023-01-27T12:15:39.148Z,235
2023-01-27T12:16:39.329Z,240
2023-01-27T12:17:39.269Z,225
2023-01-27T12:18:39.266Z,215
2023-01-27T12:19:38.801Z,210
2023-01-27T12:20:39.486Z,215
2023-01-27T12:21:39.553Z,200
2023-01-27T12:22:39.169Z,195
2023-01-27T12:23:38.924Z,205
2023-01-27T12:24:39.067Z,200
2023-01-27T12:25:39.377Z,180
2023-01-27T12:26:39.133Z,185
2023-01-27T12:27:39.356Z,175
2023-01-27T12:28:39.334Z,170
2023-01-27T12:29:39.041Z,165
2023-01-27T12:30:39.106Z,155
2023-01-27T12:31:39.706Z,150
2023-01-27T12:32:39.248Z,155
2023-01-27T12:33:39.225Z,160
2023-01-27T12:34:38.717Z,160
2023-01-27T12:35:38.944Z,155
2023-01-27T12:36:39.522Z,155
2023-01-27T12:37:39.238Z,150
2023-01-27T12:38:38.597Z,145
2023-01-27T12:39:38.582Z,150
2023-01-27T12:40:38.621Z,155
2023-01-27T12:41:38.270Z,145
2023-01-27T12:42:38.546Z,135
2023-01-27T12:43:38.782Z,135
2023-01-27T12:44:38.963Z,130
2023-01-27T12:45:38.499Z,130
2023-01-27T12:46:39.234Z,120
2023-01-27T12:47:38.463Z,110
2023-01-27T12:48:38.955Z,105
2023-01-27T12:49:38.646Z,100
2023-01-27T12:50:38.874Z,100
2023-01-27T12:51:38.873Z,100
2023-01-27T12:52:38.550Z,100
2023-01-27T12:53:38.845Z,95
2023-01-27T12:54:38.017Z,95
2023-01-27T12:55:38.270Z,95
2023-01-27T12:56:38.737Z,95
2023-01-27T12:57:38.216Z,95
2023-01-27T12:58:38.507Z,90
2023-01-27T12:59:38.169Z,90
2023-01-27T13:00:38.901Z,95
2023-01-27T13:01:39.033Z,95
2023-01-27T13:02:38.580Z,95
2023-01-27T13:03:39.131Z,95
2023-01-27T13:04:41.886Z,95
2023-01-27T13:05:39.056Z,95
2023-01-27T13:06:38.508Z,100
2023-01-27T13:07:38.781Z,110
2023-01-27T13:08:38.758Z,110
2023-01-27T13:09:39.040Z,115
2023-01-27T13:10:38.664Z,115
2023-01-27T13:11:38.688Z,115
2023-01-27T13:12:38.390Z,115
2023-01-27T13:13:38.869Z,115
2023-01-27T13:14:38.827Z,120
2023-01-27T13:15:37.843Z,120
2023-01-27T13:16:39.131Z,120
2023-01-27T13:17:38.102Z,115
2023-01-27T13:18:38.787Z,110
2023-01-27T13:19:38.770Z,110
2023-01-27T13:20:38.208Z,105
2023-01-27T13:21:38.558Z,100
2023-01-27T13:22:38.676Z,100
2023-01-27T13:23:38.177Z,100
2023-01-27T13:24:40.724Z,95
2023-01-27T13:25:38.709Z,95
2023-01-27T13:26:38.345Z,95
2023-01-27T13:27:38.046Z,100
2023-01-27T13:28:57.344Z,100
2023-01-27T13:29:38.302Z,100
2023-01-27T13:30:38.556Z,95
2023-01-27T13:31:38.823Z,95
2023-01-27T13:32:37.970Z,95
2023-01-27T13:33:38.509Z,95
2023-01-27T13:34:38.498Z,95
2023-01-27T13:35:38.449Z,95
2023-01-27T13:36:38.405Z,95
2023-01-27T13:37:38.197Z,95
2023-01-27T13:38:38.092Z,95
2023-01-27T13:39:37.864Z,90
2023-01-27T13:40:38.403Z,85
2023-01-27T13:41:38.556Z,85
2023-01-27T13:42:37.995Z,90
2023-01-27T13:43:38.017Z,90
2023-01-27T13:44:37.775Z,85
2023-01-27T13:45:37.952Z,80
2023-01-27T13:46:38.250Z,80
2023-01-27T13:47:38.146Z,85
2023-01-27T13:48:37.634Z,80
2023-01-27T13:49:38.158Z,75
2023-01-27T13:50:38.123Z,70
2023-01-27T13:51:40.793Z,70
2023-01-27T13:52:37.785Z,75
2023-01-27T13:53:37.549Z,75
2023-01-27T13:54:37.772Z,70
2023-01-27T13:55:38.071Z,70
2023-01-27T13:56:37.494Z,70
2023-01-27T13:57:38.031Z,70
2023-01-27T13:58:37.676Z,70
2023-01-27T13:59:37.392Z,70
2023-01-27T14:00:37.644Z,75
2023-01-27T14:01:37.683Z,75
2023-01-27T14:02:37.842Z,75
2023-01-27T14:03:37.806Z,70
2023-01-27T14:04:37.581Z,70
2023-01-27T14:05:37.532Z,65
2023-01-27T14:06:37.489Z,70
2023-01-27T14:07:38.223Z,70
2023-01-27T14:08:37.477Z,70
2023-01-27T14:09:39.803Z,70
2023-01-27T14:10:37.409Z,70
2023-01-27T14:11:37.734Z,70
2023-01-27T14:12:37.370Z,75
2023-01-27T14:13:37.686Z,75
2023-01-27T14:14:46.300Z,75
2023-01-27T14:15:37.594Z,75
2023-01-27T14:16:37.572Z,70
2023-01-27T14:17:37.292Z,70
2023-01-27T14:18:37.634Z,70
2023-01-27T14:19:37.065Z,70
2023-01-27T14:20:38.124Z,65
2023-01-27T14:22:00.724Z,60
2023-01-27T14:22:37.725Z,55
2023-01-27T14:23:37.669Z,60
2023-01-27T14:24:37.375Z,55
2023-01-27T14:25:37.481Z,55
2023-01-27T14:26:37.495Z,55
2023-01-27T14:27:37.214Z,50
2023-01-27T14:28:36.545Z,50
2023-01-27T14:29:37.116Z,50
2023-01-27T14:30:37.569Z,45
2023-01-27T14:31:37.300Z,45
2023-01-27T14:32:37.220Z,45
2023-01-27T14:33:37.115Z,45
2023-01-27T14:34:36.962Z,45
2023-01-27T14:35:37.031Z,45
2023-01-27T14:36:36.911Z,50
2023-01-27T14:37:36.610Z,50
2023-01-27T14:38:36.568Z,50
2023-01-27T14:39:36.824Z,50
2023-01-27T14:40:36.796Z,45
2023-01-27T14:41:36.792Z,45